Time;durP1;ratioP1;P1;durP2;ratioP2;P2;SDS_P1;SDS_P2;PMS_P1;PMS_P2;Temp;Humidity;BMP_temperature;BMP_pressure;BME280_temperature;BME280_humidity;BME280_pressure;Samples;Min_cycle;Max_cycle;Signal;HPM_P1;HPM_P2
2022/03/30 00:01:55;;;;;;;30.77;20.40;;;;;;;9.83;50.42;99273.31;4907754;28;96682;-82
2022/03/30 00:04:21;;;;;;;29.38;20.92;;;;;;;9.86;50.80;99273.19;4918152;28;97358;-82
2022/03/30 00:06:47;;;;;;;31.42;21.02;;;;;;;9.56;50.82;99244.00;4917084;28;101378;-82
2022/03/30 00:09:12;;;;;;;29.95;22.10;;;;;;;9.74;50.68;99263.25;4917899;28;101130;-82
2022/03/30 00:11:38;;;;;;;29.55;21.98;;;;;;;9.68;51.42;99272.25;4899981;28;96743;-82
2022/03/30 00:14:04;;;;;;;34.45;22.27;;;;;;;9.56;51.39;99270.22;4917905;28;96778;-82
2022/03/30 00:16:29;;;;;;;29.35;20.77;;;;;;;9.57;51.39;99265.81;4923593;28;101049;-81
2022/03/30 00:18:55;;;;;;;34.58;22.40;;;;;;;9.51;51.60;99254.72;4920693;28;97751;-82
2022/03/30 00:21:21;;;;;;;29.60;20.55;;;;;;;9.63;51.36;99278.63;4902006;28;97146;-82
2022/03/30 00:23:47;;;;;;;34.13;22.95;;;;;;;9.68;51.02;99279.25;4916849;28;96920;-82
2022/03/30 00:26:13;;;;;;;33.50;21.98;;;;;;;9.67;51.12;99275.81;4917084;28;101105;-82
2022/03/30 00:28:38;;;;;;;31.45;22.05;;;;;;;9.51;51.24;99257.34;4915553;28;101204;-83
2022/03/30 00:31:04;;;;;;;32.42;22.67;;;;;;;9.64;51.26;99275.94;4900178;28;97391;-82
2022/03/30 00:33:30;;;;;;;33.58;22.92;;;;;;;9.62;51.07;99264.69;4917107;28;97111;-82
2022/03/30 00:35:55;;;;;;;36.47;22.73;;;;;;;9.63;51.19;99269.00;4916314;28;97884;-83
2022/03/30 00:38:21;;;;;;;33.45;22.67;;;;;;;9.60;51.25;99270.91;4916656;28;101054;-82
2022/03/30 00:40:47;;;;;;;34.85;23.33;;;;;;;9.49;51.29;99255.72;4913513;28;97229;-82
2022/03/30 00:43:13;;;;;;;31.80;22.30;;;;;;;9.56;51.61;99272.81;4931607;28;97314;-82
2022/03/30 00:45:38;;;;;;;38.50;23.77;;;;;;;9.57;51.33;99269.31;4896252;28;101407;-83
2022/03/30 00:48:04;;;;;;;35.25;23.45;;;;;;;9.49;51.49;99259.16;4900644;28;101408;-82
2022/03/30 00:50:30;;;;;;;38.75;25.48;;;;;;;9.50;51.65;99257.41;4950896;28;97004;-82
2022/03/30 00:52:56;;;;;;;38.67;24.20;;;;;;;9.51;51.10;99253.84;4900025;28;97188;-82
2022/03/30 00:55:23;;;;;;;32.35;23.42;;;;;;;9.44;51.36;99266.38;4900471;28;100870;-82
2022/03/30 00:57:49;;;;;;;36.58;24.35;;;;;;;9.27;51.68;99232.25;4916544;28;97521;-82
2022/03/30 01:00:16;;;;;;;41.80;24.27;;;;;;;9.48;51.32;99251.38;4916853;28;97074;-82
2022/03/30 01:02:43;;;;;;;34.78;22.38;;;;;;;9.29;51.66;99230.44;4915129;28;96994;-82
2022/03/30 01:05:09;;;;;;;39.35;25.05;;;;;;;9.46;51.56;99248.00;4932288;28;101575;-82
2022/03/30 01:07:35;;;;;;;34.42;23.80;;;;;;;9.36;51.87;99239.69;4903413;28;101296;-83
2022/03/30 01:10:03;;;;;;;36.50;23.80;;;;;;;9.35;51.45;99242.41;4897665;28;97076;-82
2022/03/30 01:12:31;;;;;;;60.70;31.88;;;;;;;9.37;51.83;99238.78;4913271;28;96946;-82
2022/03/30 01:14:59;;;;;;;59.92;32.58;;;;;;;9.25;52.21;99247.19;4916063;28;101656;-82
2022/03/30 01:17:24;;;;;;;54.63;31.33;;;;;;;9.05;51.96;99208.84;4901077;28;101366;-82
2022/03/30 01:19:50;;;;;;;56.65;30.77;;;;;;;9.20;52.31;99239.56;4911837;28;97424;-81
2022/03/30 01:22:16;;;;;;;43.17;29.05;;;;;;;8.96;52.11;99201.38;4897364;28;97510;-83
2022/03/30 01:24:42;;;;;;;50.63;28.20;;;;;;;8.87;51.84;99178.25;4913745;28;100849;-82
2022/03/30 01:27:07;;;;;;;50.95;30.13;;;;;;;9.15;51.99;99236.28;4928960;28;101312;-82
2022/03/30 01:32:37;;;;;;;44.38;27.48;;;;;;;9.10;52.17;99230.41;4919360;28;97195;-82
2022/03/30 01:35:04;;;;;;;45.47;27.75;;;;;;;8.79;51.85;99189.06;4902180;28;101186;-82
2022/03/30 01:37:31;;;;;;;40.30;26.63;;;;;;;8.82;52.12;99199.41;4901877;28;101915;-83
2022/03/30 01:39:58;;;;;;;41.65;27.63;;;;;;;8.85;52.39;99199.25;4899068;28;96745;-82
2022/03/30 01:42:25;;;;;;;41.92;25.48;;;;;;;8.61;52.30;99175.91;4933546;28;96886;-82
2022/03/30 01:44:51;;;;;;;41.28;26.35;;;;;;;8.95;51.76;99202.31;4915182;28;101566;-82
2022/03/30 01:47:17;;;;;;;44.75;28.25;;;;;;;8.93;52.05;99212.00;4917446;28;100708;-82
2022/03/30 01:49:43;;;;;;;40.15;25.85;;;;;;;8.86;52.12;99202.72;4906590;28;96860;-82
2022/03/30 01:52:09;;;;;;;43.10;27.73;;;;;;;8.94;52.31;99216.31;4903182;28;96816;-83
2022/03/30 01:54:36;;;;;;;39.08;25.45;;;;;;;8.86;51.94;99210.56;4898108;28;100982;-82
2022/03/30 01:57:02;;;;;;;38.85;26.08;;;;;;;8.91;52.15;99208.63;4899490;28;101384;-81
2022/03/30 01:59:28;;;;;;;39.78;26.13;;;;;;;8.76;52.48;99189.22;4924153;28;97053;-82
2022/03/30 02:01:54;;;;;;;40.13;25.65;;;;;;;8.86;52.23;99210.56;4903630;28;97221;-82
2022/03/30 02:04:19;;;;;;;44.00;27.70;;;;;;;8.89;52.46;99202.59;4918853;28;101424;-81
2022/03/30 02:06:45;;;;;;;40.30;25.67;;;;;;;8.74;52.33;99184.03;4935103;28;98106;-82
2022/03/30 02:09:12;;;;;;;38.38;24.50;;;;;;;8.87;52.56;99202.63;4918547;28;97536;-82
2022/03/30 02:11:39;;;;;;;39.00;26.30;;;;;;;8.82;52.95;99202.03;4903507;28;97424;-82
2022/03/30 02:14:04;;;;;;;43.53;26.10;;;;;;;8.74;52.61;99178.81;4902750;28;101419;-82
2022/03/30 02:16:30;;;;;;;44.90;25.88;;;;;;;8.81;52.26;99193.31;4919219;28;101287;-82
2022/03/30 02:18:56;;;;;;;41.15;26.60;;;;;;;8.80;52.39;99185.53;4918822;28;97057;-82
2022/03/30 02:21:21;;;;;;;36.67;24.38;;;;;;;8.75;52.52;99195.34;4903481;28;96901;-81
2022/03/30 02:23:47;;;;;;;42.50;25.65;;;;;;;8.57;52.66;99165.63;4917796;28;101123;-82
2022/03/30 02:26:17;;;;;;;41.20;28.08;;;;;;;8.49;52.47;99150.25;4915040;28;101149;-81
2022/03/30 02:28:52;;;;;;;38.13;25.48;;;;;;;8.72;52.90;99195.47;4933784;28;97243;-83
2022/03/30 02:31:18;;;;;;;40.13;26.15;;;;;;;8.55;52.84;99164.81;4920754;28;96720;-82
2022/03/30 02:33:44;;;;;;;37.85;25.30;;;;;;;8.65;52.98;99186.22;4902020;28;101249;-82
2022/03/30 02:36:10;;;;;;;38.45;26.15;;;;;;;8.64;52.50;99182.75;4918851;28;101154;-82
2022/03/30 02:38:36;;;;;;;43.88;26.23;;;;;;;8.64;52.94;99184.50;4918298;28;97086;-81
2022/03/30 02:41:03;;;;;;;36.47;24.77;;;;;;;8.58;52.69;99172.53;4917757;28;96797;-83
2022/03/30 02:43:28;;;;;;;42.08;25.10;;;;;;;8.58;52.87;99169.91;4903686;28;101463;-83
2022/03/30 02:45:54;;;;;;;43.97;27.05;;;;;;;8.60;52.55;99170.72;4908604;28;101039;-81
2022/03/30 02:48:21;;;;;;;38.78;25.15;;;;;;;8.51;52.89;99173.75;4902851;28;96989;-82
2022/03/30 02:50:55;;;;;;;48.22;26.65;;;;;;;8.46;52.81;99176.53;4918807;28;96850;-83
2022/03/30 02:53:21;;;;;;;45.17;26.60;;;;;;;8.42;53.17;99182.00;4918108;28;101523;-82
2022/03/30 02:55:47;;;;;;;43.78;25.17;;;;;;;8.35;53.24;99178.75;4918545;28;98037;-82
2022/03/30 02:58:13;;;;;;;45.00;25.92;;;;;;;8.19;53.08;99144.56;4918116;28;97893;-82
2022/03/30 03:00:39;;;;;;;39.80;26.33;;;;;;;8.41;52.94;99178.53;4917935;28;96649;-83
2022/03/30 03:03:07;;;;;;;42.60;25.63;;;;;;;8.34;53.31;99185.72;4934346;28;98867;-83
2022/03/30 03:05:34;;;;;;;41.85;25.35;;;;;;;8.20;53.21;99151.47;4915424;28;101730;-82
2022/03/30 03:08:04;;;;;;;42.50;25.65;;;;;;;8.37;53.21;99179.53;4949811;28;96845;-82
2022/03/30 03:10:32;;;;;;;40.67;25.55;;;;;;;8.19;53.24;99152.41;4918678;28;96836;-83
2022/03/30 03:12:58;;;;;;;43.63;26.20;;;;;;;8.36;53.45;99188.28;4901687;28;101538;-83
2022/03/30 03:15:24;;;;;;;39.78;25.40;;;;;;;8.15;53.28;99162.16;4918708;28;101050;-82
2022/03/30 03:17:51;;;;;;;43.50;25.55;;;;;;;8.23;53.77;99187.09;4917530;28;97076;-84
2022/03/30 03:20:17;;;;;;;41.83;24.35;;;;;;;8.21;53.50;99181.97;4914313;28;96947;-84
2022/03/30 03:22:43;;;;;;;38.28;25.90;;;;;;;7.99;53.40;99144.56;4914825;28;101226;-87
2022/03/30 03:25:10;;;;;;;40.95;24.70;;;;;;;8.18;53.41;99184.72;4951539;28;97387;-82
2022/03/30 03:27:36;;;;;;;41.17;26.95;;;;;;;8.15;53.42;99172.59;4917468;28;97044;-83
2022/03/30 03:30:02;;;;;;;38.97;24.70;;;;;;;8.12;53.33;99161.44;4916402;28;97269;-83
2022/03/30 03:32:28;;;;;;;44.75;26.73;;;;;;;8.25;53.52;99173.06;4917234;28;101615;-82
2022/03/30 03:34:54;;;;;;;44.35;27.13;;;;;;;8.16;53.18;99169.06;4917042;28;101623;-82
2022/03/30 03:37:19;;;;;;;46.92;26.60;;;;;;;8.04;53.50;99146.06;4901780;28;96711;-82
2022/03/30 03:39:45;;;;;;;50.10;25.65;;;;;;;7.91;53.44;99127.47;4917864;28;96694;-83
2022/03/30 03:42:11;;;;;;;41.10;26.80;;;;;;;8.16;53.37;99160.38;4917863;28;101088;-82
2022/03/30 03:44:37;;;;;;;46.67;27.52;;;;;;;8.00;53.50;99156.69;4916736;28;101349;-82
2022/03/30 03:47:03;;;;;;;47.38;25.40;;;;;;;7.89;53.47;99142.34;4916933;28;97222;-82
2022/03/30 03:49:29;;;;;;;43.88;29.23;;;;;;;8.03;53.67;99161.81;4914819;28;97231;-83
2022/03/30 03:51:54;;;;;;;41.33;26.95;;;;;;;7.98;53.67;99163.78;4898134;28;101226;-83
2022/03/30 03:54:20;;;;;;;40.17;26.60;;;;;;;7.99;53.92;99170.69;4893374;28;101463;-82
2022/03/30 03:56:46;;;;;;;41.17;27.45;;;;;;;7.95;53.80;99164.75;4888965;28;96657;-82
2022/03/30 03:59:11;;;;;;;44.58;27.65;;;;;;;7.93;53.93;99170.03;4921027;28;96876;-82
2022/03/30 04:01:37;;;;;;;44.70;27.58;;;;;;;7.94;53.92;99168.25;4933977;28;98134;-83
2022/03/30 04:04:03;;;;;;;39.45;26.13;;;;;;;7.78;53.66;99141.94;4914940;28;98032;-82
2022/03/30 04:06:30;;;;;;;40.08;27.13;;;;;;;7.90;53.60;99154.47;4917520;28;96956;-82
2022/03/30 04:08:56;;;;;;;40.50;27.33;;;;;;;7.81;53.76;99126.13;4917406;28;96938;-83
2022/03/30 04:11:21;;;;;;;41.35;26.25;;;;;;;7.93;54.35;99161.34;4910462;28;97484;-82
2022/03/30 04:13:47;;;;;;;41.63;27.75;;;;;;;7.77;53.96;99136.78;4926428;28;101221;-82
2022/03/30 04:16:16;;;;;;;38.75;25.02;;;;;;;7.89;54.07;99159.78;4933713;28;96911;-82
2022/03/30 04:18:42;;;;;;;41.22;26.90;;;;;;;7.62;53.86;99115.59;4918026;28;97097;-82
2022/03/30 04:21:08;;;;;;;37.13;26.35;;;;;;;7.88;53.97;99155.44;4916990;28;98940;-83
2022/03/30 04:23:34;;;;;;;41.03;27.10;;;;;;;7.85;54.19;99155.59;4901334;28;101379;-82
2022/03/30 04:25:59;;;;;;;43.50;26.38;;;;;;;7.97;53.39;99162.94;4917305;28;96904;-82
2022/03/30 04:28:25;;;;;;;43.83;28.88;;;;;;;7.93;53.70;99151.75;4916358;28;97409;-82
2022/03/30 04:30:51;;;;;;;42.50;26.17;;;;;;;7.81;53.75;99156.63;4916500;28;101767;-82
2022/03/30 04:33:16;;;;;;;39.13;25.63;;;;;;;7.87;54.18;99162.44;4916718;28;101088;-82
2022/03/30 04:35:42;;;;;;;43.33;26.83;;;;;;;7.83;53.99;99173.94;4917183;28;96743;-82
2022/03/30 04:38:07;;;;;;;45.60;27.80;;;;;;;7.83;54.12;99160.88;4908424;28;97048;-83
2022/03/30 04:40:33;;;;;;;40.15;26.60;;;;;;;7.82;53.96;99163.56;4901113;28;100577;-82
2022/03/30 04:42:59;;;;;;;47.15;26.42;;;;;;;7.82;54.10;99176.63;4916675;28;100928;-84
2022/03/30 04:45:24;;;;;;;43.22;27.10;;;;;;;7.74;54.16;99158.66;4931738;28;97411;-84
2022/03/30 04:47:53;;;;;;;41.00;27.33;;;;;;;7.90;53.71;99169.31;4915341;28;97029;-82
2022/03/30 04:50:19;;;;;;;42.45;28.23;;;;;;;7.86;54.00;99172.97;4917160;28;100985;-82
2022/03/30 04:52:44;;;;;;;42.85;27.08;;;;;;;7.85;54.04;99166.91;4900897;28;101068;-84
2022/03/30 04:55:10;;;;;;;42.75;27.75;;;;;;;7.80;53.99;99162.78;4916809;28;97236;-82
2022/03/30 04:57:36;;;;;;;42.40;27.02;;;;;;;7.81;54.26;99174.91;4917056;28;97266;-82
2022/03/30 05:00:04;;;;;;;48.35;28.67;;;;;;;7.68;54.77;99166.75;4913419;28;101480;-83
2022/03/30 05:02:33;;;;;;;45.33;29.77;;;;;;;7.66;55.12;99163.34;4907869;28;98803;-83
2022/03/30 05:04:58;;;;;;;42.13;27.38;;;;;;;7.67;54.93;99173.72;4931004;28;97004;-82
2022/03/30 05:07:24;;;;;;;41.30;27.83;;;;;;;7.60;55.14;99163.59;4911018;28;96964;-83
2022/03/30 05:09:51;;;;;;;42.03;28.33;;;;;;;7.74;54.88;99186.53;4913074;28;97821;-82
2022/03/30 05:12:17;;;;;;;44.63;27.33;;;;;;;7.66;55.28;99181.63;4909185;28;101825;-82
2022/03/30 05:14:43;;;;;;;42.45;28.50;;;;;;;7.75;54.92;99185.63;4920071;28;96774;-83
2022/03/30 05:17:08;;;;;;;41.85;26.77;;;;;;;7.72;55.59;99183.97;4932896;28;96802;-82
2022/03/30 05:19:35;;;;;;;42.90;26.33;;;;;;;7.76;55.27;99182.94;4915135;28;101152;-82
2022/03/30 05:22:01;;;;;;;49.20;28.77;;;;;;;7.75;55.28;99173.41;4908040;28;100897;-82
2022/03/30 05:24:27;;;;;;;41.90;27.67;;;;;;;7.72;55.54;99177.00;4915820;28;97346;-82
2022/03/30 05:26:55;;;;;;;42.67;28.10;;;;;;;7.84;55.51;99178.25;4961638;28;97353;-82
2022/03/30 05:29:20;;;;;;;46.00;28.38;;;;;;;7.87;55.59;99169.44;4935077;28;101669;-82
2022/03/30 05:31:46;;;;;;;45.47;28.52;;;;;;;7.89;55.88;99186.75;4907094;28;101948;-87
2022/03/30 05:34:11;;;;;;;45.13;28.90;;;;;;;7.95;55.76;99183.06;4917620;28;97138;-84
2022/03/30 05:36:37;;;;;;;45.40;28.88;;;;;;;7.88;55.70;99161.56;4903496;28;96952;-82
2022/03/30 05:39:03;;;;;;;43.65;27.25;;;;;;;7.87;55.76;99143.31;4894949;28;101706;-80
2022/03/30 05:41:30;;;;;;;46.22;28.85;;;;;;;8.08;55.17;99172.91;4932301;28;97386;-82
2022/03/30 05:43:56;;;;;;;46.63;29.25;;;;;;;8.21;55.37;99184.56;4916239;28;97097;-82
2022/03/30 05:46:21;;;;;;;39.70;28.80;;;;;;;8.27;55.26;99184.31;4928925;28;97387;-81
2022/03/30 05:48:47;;;;;;;49.75;30.58;;;;;;;8.25;55.59;99173.06;4918714;28;101621;-86
2022/03/30 05:51:12;;;;;;;44.08;31.02;;;;;;;8.37;55.37;99180.38;4916737;28;100913;-83
2022/03/30 05:53:39;;;;;;;47.58;28.80;;;;;;;8.39;55.32;99180.34;4934297;28;98224;-82
2022/03/30 05:56:05;;;;;;;43.42;30.25;;;;;;;8.32;55.53;99156.22;4916885;28;97993;-80
2022/03/30 05:58:31;;;;;;;48.00;30.23;;;;;;;8.54;55.38;99176.22;4917347;28;101696;-82
2022/03/30 06:00:57;;;;;;;45.55;31.30;;;;;;;8.37;55.33;99166.44;4902947;28;102007;-83
2022/03/30 06:03:22;;;;;;;49.67;31.52;;;;;;;8.49;55.19;99184.25;4912601;28;97154;-82
2022/03/30 06:05:50;;;;;;;50.42;31.75;;;;;;;8.50;55.26;99182.50;4916549;28;97057;-85
2022/03/30 06:08:16;;;;;;;48.38;31.75;;;;;;;8.40;55.45;99176.81;4919383;28;101472;-82
2022/03/30 06:10:41;;;;;;;51.80;32.92;;;;;;;8.56;55.18;99179.63;4934601;28;97488;-85
2022/03/30 06:13:08;;;;;;;52.35;32.80;;;;;;;8.62;55.44;99202.91;4902154;28;97141;-81
2022/03/30 06:15:34;;;;;;;51.72;33.58;;;;;;;8.63;55.29;99186.28;4919498;28;97433;-82
2022/03/30 06:18:00;;;;;;;51.05;34.53;;;;;;;8.57;55.45;99165.63;4916016;28;101527;-82
2022/03/30 06:20:26;;;;;;;53.53;35.58;;;;;;;8.76;55.25;99194.44;4936055;28;97293;-81
2022/03/30 06:22:52;;;;;;;54.72;35.85;;;;;;;8.80;55.21;99199.47;4911455;28;96724;-82
2022/03/30 06:25:24;;;;;;;48.55;31.35;;;;;;;8.72;55.01;99179.78;4913593;28;96809;-82
2022/03/30 06:27:50;;;;;;;51.80;32.08;;;;;;;8.90;55.21;99196.41;4906151;28;101297;-87
2022/03/30 06:30:15;;;;;;;53.28;32.40;;;;;;;8.95;55.11;99197.06;4906127;28;101137;-81
2022/03/30 06:32:41;;;;;;;44.33;31.80;;;;;;;9.05;55.36;99191.38;4917969;28;96822;-82
2022/03/30 06:35:07;;;;;;;54.65;35.90;;;;;;;9.10;54.96;99191.13;4932288;28;96709;-79
2022/03/30 06:37:33;;;;;;;57.45;34.95;;;;;;;9.24;54.68;99206.22;4916967;28;101504;-79
2022/03/30 06:39:59;;;;;;;45.97;31.10;;;;;;;9.34;54.51;99201.38;4918024;28;97812;-77
2022/03/30 06:42:24;;;;;;;51.00;33.65;;;;;;;9.33;54.56;99161.25;4917576;28;97133;-78
2022/03/30 06:44:50;;;;;;;46.92;31.63;;;;;;;9.61;54.96;99197.47;4915162;28;97293;-82
2022/03/30 06:47:16;;;;;;;42.55;29.42;;;;;;;9.81;54.32;99187.81;4916477;28;98320;-78
2022/03/30 06:49:42;;;;;;;45.45;31.00;;;;;;;9.88;54.30;99176.09;4917527;28;101692;-77
2022/03/30 06:52:09;;;;;;;47.88;32.55;;;;;;;10.08;53.86;99182.97;4917202;28;97014;-77
2022/03/30 06:54:37;;;;;;;52.05;31.60;;;;;;;10.22;53.17;99182.28;4917810;28;97339;-77
2022/03/30 06:57:04;;;;;;;50.10;29.83;;;;;;;10.29;53.83;99183.69;4914058;28;97984;-77
2022/03/30 06:59:29;;;;;;;47.88;30.75;;;;;;;10.42;53.23;99185.63;4912689;28;101863;-83
2022/03/30 07:01:55;;;;;;;50.22;32.95;;;;;;;10.58;53.03;99184.81;4920835;28;97275;-80
2022/03/30 07:04:22;;;;;;;45.78;31.08;;;;;;;10.81;52.21;99183.63;4933611;28;97005;-76
2022/03/30 07:12:16;;;;;;;51.92;33.30;;;;;;;11.43;50.63;99175.88;4936276;28;97228;-76
2022/03/30 07:14:42;;;;;;;49.97;33.28;;;;;;;11.49;50.43;99175.53;4921457;28;97177;-78
2022/03/30 07:17:07;;;;;;;53.85;32.60;;;;;;;11.68;49.63;99181.47;4916758;28;101376;-76
2022/03/30 07:19:33;;;;;;;49.90;32.30;;;;;;;11.84;49.41;99177.94;4909689;28;100980;-76
2022/03/30 07:21:58;;;;;;;47.40;32.88;;;;;;;12.07;48.99;99181.91;4937047;28;96868;-77
2022/03/30 07:24:24;;;;;;;51.80;33.10;;;;;;;12.32;48.14;99173.44;4916965;28;97389;-78
2022/03/30 07:26:49;;;;;;;47.45;32.55;;;;;;;12.56;48.42;99171.97;4915566;28;101392;-77
2022/03/30 07:29:15;;;;;;;46.63;30.85;;;;;;;12.66;47.58;99169.66;4915986;28;101301;-76
2022/03/30 07:31:41;;;;;;;50.00;30.25;;;;;;;12.60;47.32;99154.22;4931434;28;97200;-76
2022/03/30 07:34:06;;;;;;;43.65;30.13;;;;;;;12.66;47.17;99159.13;4915829;28;97105;-86
2022/03/30 07:36:32;;;;;;;47.38;30.38;;;;;;;12.66;46.74;99153.84;4900486;28;101775;-84
2022/03/30 07:38:57;;;;;;;46.35;30.10;;;;;;;12.69;46.39;99146.59;4921795;28;97987;-85
2022/03/30 07:41:23;;;;;;;42.00;27.63;;;;;;;12.73;46.07;99164.84;4917831;28;96840;-80
2022/03/30 07:43:48;;;;;;;47.90;29.23;;;;;;;12.88;45.91;99179.69;4907271;28;97111;-80
2022/03/30 07:46:15;;;;;;;47.00;28.92;;;;;;;12.91;45.93;99167.22;4905147;28;101250;-80
2022/03/30 07:48:41;;;;;;;42.60;29.08;;;;;;;13.11;45.68;99179.13;4910068;28;101256;-82
2022/03/30 07:51:06;;;;;;;40.25;28.40;;;;;;;13.32;45.93;99171.69;4911451;28;97279;-85
2022/03/30 07:53:32;;;;;;;39.80;27.85;;;;;;;13.64;45.11;99167.91;4910134;28;97178;-85
2022/03/30 07:55:58;;;;;;;40.90;25.88;;;;;;;13.84;44.81;99164.00;4922115;28;100968;-78
2022/03/30 07:58:25;;;;;;;46.15;26.83;;;;;;;14.00;44.08;99151.50;4946911;28;97365;-83
2022/03/30 08:00:51;;;;;;;40.38;26.92;;;;;;;14.12;43.62;99155.94;4902285;28;96937;-81
2022/03/30 08:03:17;;;;;;;35.42;23.38;;;;;;;14.11;43.05;99161.31;4917722;28;96857;-83
2022/03/30 08:05:43;;;;;;;44.25;25.30;;;;;;;14.17;42.83;99158.28;4901663;28;101400;-83
2022/03/30 08:08:09;;;;;;;40.83;25.35;;;;;;;14.10;43.00;99146.44;4917383;28;101270;-84
2022/03/30 08:10:35;;;;;;;43.55;24.85;;;;;;;14.17;42.97;99135.38;4916687;28;97755;-85
2022/03/30 08:13:02;;;;;;;42.92;27.23;;;;;;;14.41;42.74;99134.66;4916570;28;97005;-84
2022/03/30 08:15:28;;;;;;;47.15;27.95;;;;;;;14.80;42.24;99149.53;4913881;28;100945;-85
2022/03/30 08:17:54;;;;;;;37.67;26.17;;;;;;;15.16;41.74;99161.13;4930408;28;98050;-87
2022/03/30 08:23:05;;;;;;;39.65;27.27;;;;;;;15.86;39.82;99141.97;4919700;28;96902;-83
2022/03/30 08:25:31;;;;;;;37.58;26.63;;;;;;;16.00;39.50;99128.53;4917978;28;97531;-84
2022/03/30 08:27:57;;;;;;;41.95;26.65;;;;;;;16.49;38.96;99142.47;4915613;28;101155;-87
2022/03/30 08:30:22;;;;;;;42.65;25.25;;;;;;;16.63;38.92;99122.88;4931587;28;97124;-83
2022/03/30 08:32:48;;;;;;;37.45;26.13;;;;;;;16.90;38.37;99141.94;4917022;28;97041;-84
2022/03/30 08:35:14;;;;;;;41.75;27.88;;;;;;;17.14;37.20;99144.44;4916535;28;101684;-84
2022/03/30 08:37:40;;;;;;;39.60;26.98;;;;;;;17.28;37.25;99139.84;4897727;28;101466;-84
2022/03/30 08:40:06;;;;;;;48.00;26.95;;;;;;;17.28;36.77;99131.88;4916568;28;97263;-83
2022/03/30 08:42:32;;;;;;;36.28;25.08;;;;;;;17.24;36.86;99117.19;4950450;28;97143;-84
2022/03/30 08:44:59;;;;;;;35.53;25.67;;;;;;;17.41;36.64;99117.50;4899946;28;101027;-82
2022/03/30 08:47:25;;;;;;;44.97;26.77;;;;;;;17.68;36.59;99126.00;4916422;28;97888;-85
2022/03/30 08:49:51;;;;;;;31.45;22.92;;;;;;;17.84;35.66;99116.66;4917000;28;97247;-84
2022/03/30 08:52:17;;;;;;;36.38;24.90;;;;;;;18.03;35.52;99120.44;4916573;28;96803;-84
2022/03/30 08:54:44;;;;;;;30.23;22.98;;;;;;;17.82;35.08;99072.66;4933102;28;98551;-84
2022/03/30 08:57:10;;;;;;;41.83;24.40;;;;;;;17.81;34.87;99113.44;4914270;28;101363;-82
2022/03/30 08:59:35;;;;;;;63.78;25.70;;;;;;;17.73;35.09;99111.38;4904435;28;96923;-83
2022/03/30 09:02:01;;;;;;;39.97;24.70;;;;;;;17.49;34.75;99100.97;4919045;28;97232;-84
2022/03/30 09:04:27;;;;;;;39.40;24.27;;;;;;;17.46;35.46;99113.66;4919488;28;98001;-85
2022/03/30 09:06:57;;;;;;;33.70;22.63;;;;;;;17.19;34.89;99093.69;4936341;28;97990;-83
2022/03/30 09:09:41;;;;;;;36.92;23.45;;;;;;;17.14;35.01;99123.25;4920059;28;97050;-84
2022/03/30 09:12:09;;;;;;;32.88;23.77;;;;;;;17.10;34.95;99121.78;4953851;28;96591;-84
2022/03/30 09:14:37;;;;;;;33.45;23.15;;;;;;;17.06;35.03;99119.50;4920129;28;96900;-84
2022/03/30 09:17:05;;;;;;;34.00;22.42;;;;;;;17.25;34.94;99118.88;4920261;28;101233;-84
2022/03/30 09:19:36;;;;;;;32.97;21.73;;;;;;;17.20;35.16;99066.22;4904183;28;97116;-84
2022/03/30 09:22:03;;;;;;;;;;;;;;;17.57;34.14;99117.13;4921453;28;96827;-81
2022/03/30 09:24:30;;;;;;;38.55;23.75;;;;;;;17.51;34.48;99100.84;4915991;28;101403;-84
2022/03/30 09:26:57;;;;;;;32.97;22.52;;;;;;;17.51;34.24;99104.34;4920103;28;98132;-88
2022/03/30 09:29:25;;;;;;;40.72;22.10;;;;;;;17.46;33.99;99105.69;4919494;28;98480;-83
2022/03/30 09:31:52;;;;;;;35.85;21.77;;;;;;;17.30;34.55;99083.06;4918244;28;97207;-83
2022/03/30 09:34:19;;;;;;;33.03;21.77;;;;;;;17.63;34.27;99100.69;4919078;28;98185;-84
2022/03/30 09:36:46;;;;;;;35.65;19.75;;;;;;;17.82;34.47;99101.84;4919686;28;101703;-83
2022/03/30 09:39:33;;;;;;;35.28;22.13;;;;;;;17.94;34.00;99099.97;4916603;28;98094;-86
2022/03/30 09:42:00;;;;;;;29.88;20.38;;;;;;;18.19;34.01;99101.41;4923577;28;96977;-83
2022/03/30 09:44:28;;;;;;;33.10;21.08;;;;;;;18.21;33.39;99072.88;4942705;28;101095;-84
2022/03/30 09:46:56;;;;;;;26.77;19.67;;;;;;;18.49;33.39;99095.28;4936614;28;98484;-83
2022/03/30 09:49:40;;;;;;;29.25;20.33;;;;;;;18.43;32.68;99078.06;4936227;28;96742;-83
2022/03/30 09:52:24;;;;;;;28.67;19.98;;;;;;;18.52;32.76;99087.03;4919540;28;96906;-84
2022/03/30 09:54:55;;;;;;;27.50;19.55;;;;;;;18.62;33.06;99082.63;4933060;28;100420;-83
2022/03/30 09:57:24;;;;;;;52.17;21.67;;;;;;;18.62;32.93;99063.19;4901773;28;101791;-84
2022/03/30 10:00:09;;;;;;;38.15;22.23;;;;;;;18.78;33.12;99074.19;4914744;28;97040;-84
2022/03/30 10:02:52;;;;;;;30.42;21.67;;;;;;;18.70;32.15;99050.06;4919782;28;96795;-83
2022/03/30 10:05:21;;;;;;;31.30;22.75;;;;;;;18.75;32.44;99072.63;4919398;28;102070;-83
2022/03/30 10:07:47;;;;;;;33.20;22.00;;;;;;;18.38;32.44;99044.88;4903394;28;100728;-82
2022/03/30 10:10:15;;;;;;;31.05;21.05;;;;;;;18.08;33.33;99039.41;4919516;28;97093;-83
2022/03/30 10:12:42;;;;;;;28.60;20.75;;;;;;;18.10;33.36;99058.72;4919391;28;97216;-83
2022/03/30 10:15:08;;;;;;;28.77;20.90;;;;;;;18.20;33.33;99068.56;4920643;28;102015;-82
2022/03/30 10:17:35;;;;;;;33.75;21.75;;;;;;;18.26;33.06;99060.06;4920832;28;101096;-87
2022/03/30 10:20:01;;;;;;;30.73;21.45;;;;;;;18.38;32.85;99066.97;4897636;28;96752;-89
2022/03/30 10:22:35;;;;;;;31.15;22.95;;;;;;;18.37;32.13;99061.81;4910306;28;97158;-87
2022/03/30 10:25:35;;;;;;;35.13;22.42;;;;;;;18.26;32.69;99031.69;4929961;28;101683;-84
2022/03/30 10:28:22;;;;;;;34.67;22.23;;;;;;;18.34;32.46;99046.97;4952781;28;97862;-89
2022/03/30 10:30:56;;;;;;;29.40;20.80;;;;;;;18.10;32.50;99044.63;4910947;28;97862;-78
2022/03/30 10:33:33;;;;;;;34.05;23.08;;;;;;;17.95;32.95;99032.63;4917006;28;96949;-79
2022/03/30 10:36:34;;;;;;;32.88;21.45;;;;;;;17.77;32.60;99033.22;4918939;28;101685;-79
2022/03/30 10:39:11;;;;;;;36.85;23.05;;;;;;;17.66;33.11;99038.56;4940371;28;98286;-79
2022/03/30 10:41:56;;;;;;;30.88;20.23;;;;;;;17.70;33.76;99032.03;4944386;28;97031;-81
2022/03/30 10:44:47;;;;;;;33.58;22.20;;;;;;;17.67;33.50;99031.44;4940852;28;97147;-81
2022/03/30 10:47:21;;;;;;;36.35;21.30;;;;;;;17.48;33.25;99011.72;4909484;28;101695;-81
2022/03/30 10:49:56;;;;;;;29.83;20.73;;;;;;;17.48;33.78;99027.66;4921634;28;101718;-81
2022/03/30 10:52:57;;;;;;;30.77;21.95;;;;;;;17.33;33.35;99026.28;4922399;28;96970;-78
2022/03/30 10:55:26;;;;;;;33.25;23.27;;;;;;;17.25;34.16;99026.06;4889845;28;97211;-83
2022/03/30 10:58:03;;;;;;;33.42;22.90;;;;;;;17.15;34.12;98997.66;4924690;28;101950;-80
2022/03/30 11:00:36;;;;;;;34.72;23.55;;;;;;;17.35;34.58;99021.69;4901798;28;100977;-82
2022/03/30 11:03:14;;;;;;;38.25;23.85;;;;;;;17.34;34.42;99009.41;4917678;28;96982;-81
2022/03/30 11:05:58;;;;;;;37.53;22.73;;;;;;;17.33;34.26;99003.25;4931449;28;96730;-79
2022/03/30 11:08:33;;;;;;;34.88;22.38;;;;;;;17.33;33.95;99011.19;4907056;28;101429;-81
2022/03/30 11:11:03;;;;;;;31.27;21.73;;;;;;;17.29;33.89;98995.69;4934287;28;101670;-81
2022/03/30 11:13:29;;;;;;;34.83;21.73;;;;;;;17.27;33.96;99002.91;4901356;28;97817;-80
2022/03/30 11:16:01;;;;;;;35.70;23.13;;;;;;;17.17;34.22;99003.69;4918653;28;97444;-80
2022/03/30 11:18:27;;;;;;;36.30;22.90;;;;;;;17.00;33.89;98993.59;4950228;28;101884;-84
2022/03/30 11:21:08;;;;;;;32.17;20.98;;;;;;;16.96;34.13;98994.84;4910509;28;101206;-81
2022/03/30 11:23:55;;;;;;;33.88;21.60;;;;;;;16.90;34.61;99004.13;4929077;28;97192;-81
2022/03/30 11:26:23;;;;;;;29.38;20.17;;;;;;;16.89;34.33;98991.00;4936384;28;97129;-81
2022/03/30 11:28:48;;;;;;;31.90;21.25;;;;;;;16.77;33.90;98994.63;4908239;28;101237;-81
2022/03/30 11:31:22;;;;;;;33.10;21.63;;;;;;;16.48;33.85;98958.03;4908033;28;97468;-84
2022/03/30 11:34:25;;;;;;;34.85;22.55;;;;;;;16.57;34.22;98993.53;4925839;28;96972;-81